createdAt,value
2023-05-14T00:01:19.046Z,101772.75
2023-05-14T00:03:45.643Z,101763.94
2023-05-14T00:06:12.336Z,101760.53
2023-05-14T00:08:38.881Z,101758.09
2023-05-14T00:11:05.500Z,101764.25
2023-05-14T00:13:32.040Z,101766.97
2023-05-14T00:15:58.591Z,101764.31
2023-05-14T00:18:25.225Z,101759.06
2023-05-14T00:20:51.790Z,101752.91
2023-05-14T00:23:18.321Z,101758.25
2023-05-14T00:25:44.871Z,101753.94
2023-05-14T00:28:11.413Z,101745.03
2023-05-14T00:30:38.048Z,101753.09
2023-05-14T00:33:04.629Z,101752.28
2023-05-14T00:35:31.270Z,101751.47
2023-05-14T00:37:57.816Z,101752.50
2023-05-14T00:40:26.004Z,101745.38
2023-05-14T00:42:52.978Z,101739.22
2023-05-14T00:45:19.584Z,101737.38
2023-05-14T00:47:46.185Z,101736.56
2023-05-14T00:50:12.726Z,101743.00
2023-05-14T00:52:39.330Z,101744.88
2023-05-14T00:55:06.348Z,101738.91
2023-05-14T00:57:35.904Z,101732.81
2023-05-14T01:00:02.680Z,101735.50
2023-05-14T01:02:29.372Z,101731.97
2023-05-14T01:04:55.961Z,101732.00
2023-05-14T01:07:40.870Z,101730.38
2023-05-14T01:10:10.388Z,101732.28
2023-05-14T01:12:44.622Z,101734.16
2023-05-14T01:15:12.841Z,101746.44
2023-05-14T01:17:52.428Z,101742.94
2023-05-14T01:20:19.098Z,101744.75
2023-05-14T01:22:45.643Z,101746.34
2023-05-14T01:25:12.194Z,101746.34
2023-05-14T01:27:49.191Z,101746.44
2023-05-14T01:30:29.623Z,101744.59
2023-05-14T01:32:58.035Z,101753.63
2023-05-14T01:35:26.136Z,101737.63
2023-05-14T01:37:54.677Z,101744.03
2023-05-14T01:40:21.461Z,101737.03
2023-05-14T01:42:48.121Z,101737.16
2023-05-14T01:45:14.651Z,101734.41
2023-05-14T01:47:41.200Z,101743.47
2023-05-14T01:50:07.927Z,101739.91
2023-05-14T01:52:34.486Z,101737.25
2023-05-14T01:55:01.177Z,101744.47
2023-05-14T01:57:27.682Z,101737.50
2023-05-14T01:59:54.180Z,101738.41
2023-05-14T02:02:20.742Z,101734.03
2023-05-14T02:04:47.228Z,101726.25
2023-05-14T02:07:13.782Z,101734.25
2023-05-14T02:09:40.346Z,101737.81
2023-05-14T02:12:08.324Z,101734.38
2023-05-14T02:14:34.909Z,101732.69
2023-05-14T02:17:01.422Z,101728.44
2023-05-14T02:19:27.979Z,101735.50
2023-05-14T02:21:54.562Z,101737.28
2023-05-14T02:24:21.077Z,101732.00
2023-05-14T02:26:47.788Z,101728.44
2023-05-14T02:29:14.276Z,101732.03
2023-05-14T02:31:40.874Z,101729.34
2023-05-14T02:34:07.447Z,101724.84
2023-05-14T02:36:33.964Z,101730.25
2023-05-14T02:39:00.488Z,101722.28
2023-05-14T02:41:27.207Z,101713.41
2023-05-14T02:43:53.950Z,101717.94
2023-05-14T02:46:20.552Z,101720.66
2023-05-14T02:48:47.112Z,101724.25
2023-05-14T02:51:13.670Z,101721.56
2023-05-14T02:53:40.173Z,101715.41
2023-05-14T02:56:06.779Z,101712.69
2023-05-14T02:58:33.360Z,101713.66
2023-05-14T03:00:59.948Z,101707.59
2023-05-14T03:03:28.921Z,101712.03
2023-05-14T03:05:56.279Z,101719.97
2023-05-14T03:08:22.796Z,101710.16
2023-05-14T03:10:49.413Z,101711.94
2023-05-14T03:13:15.927Z,101710.19
2023-05-14T03:15:42.462Z,101717.22
2023-05-14T03:18:09.146Z,101708.41
2023-05-14T03:20:35.752Z,101708.47
2023-05-14T03:23:02.318Z,101696.13
2023-05-14T03:25:28.812Z,101712.03
2023-05-14T03:27:55.376Z,101712.06
2023-05-14T03:30:22.200Z,101712.97
2023-05-14T03:32:48.947Z,101707.75
2023-05-14T03:35:15.495Z,101707.75
2023-05-14T03:37:42.031Z,101714.94
2023-05-14T03:40:08.991Z,101707.81
2023-05-14T03:42:35.522Z,101707.88
2023-05-14T03:45:02.042Z,101694.50
2023-05-14T03:47:28.612Z,101693.53
2023-05-14T03:49:55.188Z,101705.00
2023-05-14T03:52:21.740Z,101706.81
2023-05-14T03:54:48.231Z,101712.97
2023-05-14T03:57:14.825Z,101709.38
2023-05-14T03:59:41.430Z,101708.41
2023-05-14T04:02:07.978Z,101709.31
2023-05-14T04:04:34.561Z,101720.97
2023-05-14T04:07:01.201Z,101716.56
2023-05-14T04:09:27.747Z,101718.31
2023-05-14T04:11:54.260Z,101708.53
2023-05-14T04:14:20.788Z,101715.59
2023-05-14T04:16:47.374Z,101723.53
2023-05-14T04:19:13.979Z,101713.63
2023-05-14T04:21:40.668Z,101718.88
2023-05-14T04:24:07.485Z,101712.59
2023-05-14T04:26:34.016Z,101723.16
2023-05-14T04:29:00.575Z,101710.69
2023-05-14T04:31:27.179Z,101714.16
2023-05-14T04:33:53.767Z,101709.59
2023-05-14T04:36:20.290Z,101713.03
2023-05-14T04:38:46.859Z,101715.59
2023-05-14T04:41:13.388Z,101717.22
2023-05-14T04:43:39.941Z,101719.69
2023-05-14T04:46:06.612Z,101715.97
2023-05-14T04:48:33.202Z,101713.19
2023-05-14T04:50:59.772Z,101715.75
2023-05-14T04:53:26.360Z,101716.44
2023-05-14T04:55:52.946Z,101721.81
2023-05-14T04:58:19.486Z,101721.78
2023-05-14T05:00:46.167Z,101717.16
2023-05-14T05:03:12.932Z,101720.63
2023-05-14T05:05:39.600Z,101725.75
2023-05-14T05:08:06.160Z,101714.91
2023-05-14T05:10:32.748Z,101719.16
2023-05-14T05:12:59.345Z,101713.63
2023-05-14T05:15:26.582Z,101714.47
2023-05-14T05:17:53.521Z,101708.19
2023-05-14T05:20:20.059Z,101710.78
2023-05-14T05:22:46.613Z,101717.69
2023-05-14T05:25:13.187Z,101716.63
2023-05-14T05:27:39.688Z,101711.19
2023-05-14T05:30:06.902Z,101719.00
2023-05-14T05:32:33.446Z,101710.94
2023-05-14T05:35:00.206Z,101709.03
2023-05-14T05:37:26.761Z,101717.81
2023-05-14T05:39:53.314Z,101716.81
2023-05-14T05:42:20.137Z,101713.03
2023-05-14T05:44:46.785Z,101718.22
2023-05-14T05:47:13.379Z,101715.44
2023-05-14T05:49:39.937Z,101718.06
2023-05-14T05:52:06.669Z,101717.84
2023-05-14T05:54:33.368Z,101723.09
2023-05-14T05:56:59.934Z,101721.19
2023-05-14T05:59:26.524Z,101723.66
2023-05-14T06:01:53.158Z,101719.75
2023-05-14T06:04:19.710Z,101724.88
2023-05-14T06:06:46.336Z,101719.38
2023-05-14T06:09:12.826Z,101712.16
2023-05-14T06:11:39.345Z,101720.94
2023-05-14T06:14:05.879Z,101720.84
2023-05-14T06:16:32.457Z,101723.41
2023-05-14T06:18:59.066Z,101724.06
2023-05-14T06:21:25.593Z,101724.75
2023-05-14T06:23:52.167Z,101726.13
2023-05-14T06:26:18.765Z,101728.59
2023-05-14T06:28:45.317Z,101724.84
2023-05-14T06:31:11.834Z,101719.31
2023-05-14T06:33:38.389Z,101724.59
2023-05-14T06:36:05.738Z,101725.34
2023-05-14T06:38:32.447Z,101717.25
2023-05-14T06:40:59.055Z,101720.63
2023-05-14T06:43:25.675Z,101715.19
2023-05-14T06:45:52.226Z,101721.13
2023-05-14T06:48:19.186Z,101712.06
2023-05-14T06:50:46.494Z,101716.31
2023-05-14T06:53:13.083Z,101717.00
2023-05-14T06:55:39.619Z,101719.34
2023-05-14T06:58:08.396Z,101716.47
2023-05-14T07:00:34.997Z,101717.97
2023-05-14T07:03:01.627Z,101716.06
2023-05-14T07:05:28.224Z,101706.00
2023-05-14T07:07:54.747Z,101716.31
2023-05-14T07:10:21.440Z,101708.94
2023-05-14T07:12:48.564Z,101702.59
2023-05-14T07:15:15.086Z,101697.81
2023-05-14T07:17:41.716Z,101708.13
2023-05-14T07:20:08.753Z,101704.28
2023-05-14T07:22:35.309Z,101695.84
2023-05-14T07:25:01.862Z,101695.47
2023-05-14T07:27:28.439Z,101699.69
2023-05-14T07:29:54.986Z,101692.06
2023-05-14T07:32:21.605Z,101700.41
2023-05-14T07:34:48.173Z,101698.03
2023-05-14T07:37:14.744Z,101694.88
2023-05-14T07:39:41.268Z,101684.59
2023-05-14T07:42:07.824Z,101682.19
2023-05-14T07:44:34.393Z,101683.56
2023-05-14T07:47:01.014Z,101677.88
2023-05-14T07:49:27.680Z,101686.25
2023-05-14T07:51:54.190Z,101674.16
2023-05-14T07:54:20.715Z,101674.84
2023-05-14T07:56:47.223Z,101672.72
2023-05-14T07:59:13.784Z,101668.13
2023-05-14T08:01:40.303Z,101672.59
2023-05-14T08:04:06.965Z,101667.94
2023-05-14T08:06:33.633Z,101671.34
2023-05-14T08:09:00.121Z,101666.63
2023-05-14T08:11:26.668Z,101668.16
2023-05-14T08:13:53.211Z,101666.06
2023-05-14T08:16:19.818Z,101678.75
2023-05-14T08:18:46.398Z,101673.94
2023-05-14T08:21:12.999Z,101670.81
2023-05-14T08:23:39.512Z,101661.31
2023-05-14T08:26:06.027Z,101654.50
2023-05-14T08:28:32.590Z,101661.06
2023-05-14T08:30:59.140Z,101656.75
2023-05-14T08:33:25.769Z,101650.91
2023-05-14T08:35:55.412Z,101648.44
2023-05-14T08:38:21.985Z,101645.75
2023-05-14T08:40:57.653Z,101629.78
2023-05-14T08:43:30.697Z,101637.63
2023-05-14T08:46:00.952Z,101642.25
2023-05-14T08:48:29.520Z,101640.47
2023-05-14T08:50:56.136Z,101637.00
2023-05-14T08:53:22.708Z,101637.38
2023-05-14T08:55:50.987Z,101637.84
2023-05-14T08:58:17.559Z,101626.56
2023-05-14T09:00:44.081Z,101631.59
2023-05-14T09:03:10.636Z,101626.13
2023-05-14T09:05:37.256Z,101633.91
2023-05-14T09:08:03.863Z,101630.59
2023-05-14T09:10:30.443Z,101630.34
2023-05-14T09:12:57.054Z,101630.16
2023-05-14T09:15:23.696Z,101624.22
2023-05-14T09:17:50.285Z,101620.72
2023-05-14T09:20:16.808Z,101610.72
2023-05-14T09:22:43.412Z,101614.31
2023-05-14T09:25:10.628Z,101613.81
2023-05-14T09:27:37.254Z,101610.72
2023-05-14T09:30:07.997Z,101609.19
2023-05-14T09:32:38.605Z,101600.06
2023-05-14T09:35:22.036Z,101606.22
2023-05-14T09:37:50.437Z,101589.81
2023-05-14T09:40:17.916Z,101590.53
2023-05-14T09:42:44.515Z,101594.28
2023-05-14T09:45:11.222Z,101578.50
2023-05-14T09:47:38.131Z,101584.84
2023-05-14T09:50:05.443Z,101587.06
2023-05-14T09:52:32.064Z,101578.78
2023-05-14T09:54:58.623Z,101579.97
2023-05-14T09:57:25.156Z,101582.69
2023-05-14T09:59:51.680Z,101569.34
2023-05-14T10:02:25.611Z,101581.41
2023-05-14T10:04:53.633Z,101579.72
2023-05-14T10:07:25.287Z,101571.97
2023-05-14T10:09:57.612Z,101568.34
2023-05-14T10:12:25.384Z,101566.00
2023-05-14T10:14:51.939Z,101565.88
2023-05-14T10:17:18.707Z,101569.44
2023-05-14T10:19:51.676Z,101567.69
2023-05-14T10:22:21.321Z,101566.16
2023-05-14T10:24:47.976Z,101563.53
2023-05-14T10:27:14.535Z,101555.50
2023-05-14T10:29:41.060Z,101560.03
2023-05-14T10:32:08.455Z,101554.91
2023-05-14T10:34:41.805Z,101552.22
2023-05-14T10:37:08.249Z,101560.47
2023-05-14T10:39:47.829Z,101549.72
2023-05-14T10:42:17.498Z,101554.38
2023-05-14T10:45:05.280Z,101548.78
2023-05-14T10:47:32.073Z,101543.91
2023-05-14T10:49:59.712Z,101535.38
2023-05-14T10:52:26.380Z,101548.94
2023-05-14T10:54:54.624Z,101544.09
2023-05-14T10:57:21.901Z,101521.91
2023-05-14T10:59:53.016Z,101531.84
2023-05-14T11:02:34.187Z,101533.59
2023-05-14T11:05:01.996Z,101529.16
2023-05-14T11:07:32.799Z,101520.78
2023-05-14T11:10:01.132Z,101529.13
2023-05-14T11:12:28.179Z,101518.75
2023-05-14T11:14:56.966Z,101516.59
2023-05-14T11:17:24.433Z,101515.53
2023-05-14T11:19:51.245Z,101514.75
2023-05-14T11:22:17.939Z,101511.50
2023-05-14T11:24:44.454Z,101514.00
2023-05-14T11:27:11.071Z,101503.31
2023-05-14T11:29:38.153Z,101515.53
2023-05-14T11:32:07.722Z,101501.28
2023-05-14T11:34:34.418Z,101491.56
2023-05-14T11:37:06.125Z,101495.38
2023-05-14T11:39:33.938Z,101488.78
2023-05-14T11:42:02.494Z,101489.94
2023-05-14T11:44:29.005Z,101491.53
2023-05-14T11:46:58.935Z,101488.47
2023-05-14T11:49:25.764Z,101478.78
2023-05-14T11:52:02.093Z,101477.97
2023-05-14T11:54:29.132Z,101479.91
2023-05-14T11:56:56.158Z,101474.84
2023-05-14T11:59:29.371Z,101473.19
2023-05-14T12:01:55.937Z,101475.50
2023-05-14T12:04:22.638Z,101465.84
2023-05-14T12:06:49.901Z,101469.00
2023-05-14T12:09:19.990Z,101466.00
2023-05-14T12:11:47.118Z,101461.34
2023-05-14T12:14:23.104Z,101455.72
2023-05-14T12:16:50.103Z,101453.63
2023-05-14T12:19:19.117Z,101460.78
2023-05-14T12:21:47.682Z,101449.66
2023-05-14T12:24:16.772Z,101449.66
2023-05-14T12:26:51.001Z,101454.44
2023-05-14T12:29:17.536Z,101444.34
2023-05-14T12:31:47.706Z,101426.72
2023-05-14T12:34:14.568Z,101436.13
2023-05-14T12:36:41.222Z,101435.34
2023-05-14T12:39:08.023Z,101440.09
2023-05-14T12:41:34.593Z,101427.97
2023-05-14T12:44:02.605Z,101415.31
2023-05-14T12:46:29.277Z,101427.47
2023-05-14T12:48:55.956Z,101420.50
2023-05-14T12:51:22.526Z,101423.75
2023-05-14T12:53:49.075Z,101418.34
2023-05-14T12:56:15.589Z,101427.09
2023-05-14T12:58:42.111Z,101422.88
2023-05-14T13:01:08.834Z,101419.13
2023-05-14T13:03:35.459Z,101413.69
2023-05-14T13:06:01.995Z,101414.38
2023-05-14T13:08:28.598Z,101406.88
2023-05-14T13:10:55.272Z,101406.72
2023-05-14T13:13:22.174Z,101402.47
2023-05-14T13:15:48.961Z,101398.72
2023-05-14T13:18:16.162Z,101396.78
2023-05-14T13:20:43.314Z,101384.66
2023-05-14T13:23:10.060Z,101389.72
2023-05-14T13:25:36.584Z,101390.63
2023-05-14T13:28:03.145Z,101390.38
2023-05-14T13:30:29.700Z,101383.47
2023-05-14T13:32:56.304Z,101382.78
2023-05-14T13:35:23.060Z,101384.31
2023-05-14T13:37:49.839Z,101382.06
2023-05-14T13:40:16.729Z,101375.75
2023-05-14T13:42:43.240Z,101374.47
2023-05-14T13:45:10.134Z,101380.38
2023-05-14T13:47:36.710Z,101387.09
2023-05-14T13:50:03.426Z,101373.78
2023-05-14T13:52:29.983Z,101372.59
2023-05-14T13:54:56.508Z,101357.41
2023-05-14T13:57:23.007Z,101364.25
2023-05-14T13:59:49.612Z,101360.03
2023-05-14T14:02:16.212Z,101360.50
2023-05-14T14:04:42.928Z,101345.53
2023-05-14T14:07:09.527Z,101350.00
2023-05-14T14:09:36.051Z,101343.06
2023-05-14T14:12:06.121Z,101341.19
2023-05-14T14:14:32.637Z,101339.63
2023-05-14T14:16:59.189Z,101340.13
2023-05-14T14:19:26.290Z,101336.69
2023-05-14T14:21:52.802Z,101335.56
2023-05-14T14:24:19.423Z,101320.22
2023-05-14T14:26:45.954Z,101330.75
2023-05-14T14:29:12.449Z,101324.47
2023-05-14T14:31:39.052Z,101327.34
2023-05-14T14:34:05.622Z,101319.53
2023-05-14T14:36:32.171Z,101324.22
2023-05-14T14:38:58.763Z,101311.56
2023-05-14T14:41:25.338Z,101312.44
2023-05-14T14:43:51.899Z,101307.56
2023-05-14T14:46:18.448Z,101313.66
2023-05-14T14:48:44.995Z,101311.63
2023-05-14T14:51:11.564Z,101307.22
2023-05-14T14:53:38.120Z,101303.69
2023-05-14T14:56:04.936Z,101295.31
2023-05-14T14:58:31.515Z,101302.22
2023-05-14T15:00:58.198Z,101302.50
2023-05-14T15:03:25.316Z,101305.34
2023-05-14T15:05:52.096Z,101294.09
2023-05-14T15:08:18.666Z,101292.00
2023-05-14T15:10:45.394Z,101297.47
2023-05-14T15:13:12.110Z,101298.81
2023-05-14T15:15:38.696Z,101296.78
2023-05-14T15:18:05.286Z,101290.53
2023-05-14T15:20:31.876Z,101285.53
2023-05-14T15:22:58.382Z,101289.59
2023-05-14T15:25:26.695Z,101281.00
2023-05-14T15:27:53.390Z,101278.44
2023-05-14T15:30:20.049Z,101278.00
2023-05-14T15:32:46.744Z,101281.53
2023-05-14T15:35:13.415Z,101283.03
2023-05-14T15:37:41.625Z,101281.50
2023-05-14T15:40:08.515Z,101276.41
2023-05-14T15:42:38.493Z,101276.69
2023-05-14T15:45:05.594Z,101272.97
2023-05-14T15:47:32.233Z,101273.19
2023-05-14T15:49:59.139Z,101265.28
2023-05-14T15:52:27.388Z,101273.56
2023-05-14T15:54:53.969Z,101262.56
2023-05-14T15:57:20.536Z,101275.78
2023-05-14T15:59:47.249Z,101268.16
2023-05-14T16:02:14.323Z,101263.59
2023-05-14T16:04:40.865Z,101261.66
2023-05-14T16:07:09.550Z,101258.75
2023-05-14T16:09:36.415Z,101250.38
2023-05-14T16:12:03.085Z,101253.22
2023-05-14T16:14:29.679Z,101259.31
2023-05-14T16:16:56.427Z,101251.38
2023-05-14T16:19:22.991Z,101254.75
2023-05-14T16:21:49.558Z,101251.94
2023-05-14T16:24:17.944Z,101255.41
2023-05-14T16:26:44.565Z,101250.28
2023-05-14T16:29:11.108Z,101254.34
2023-05-14T16:31:37.895Z,101247.03
2023-05-14T16:34:04.587Z,101250.19
2023-05-14T16:36:31.119Z,101241.13
2023-05-14T16:39:07.112Z,101246.56
2023-05-14T16:41:35.216Z,101235.56
2023-05-14T16:44:01.771Z,101231.19
2023-05-14T16:46:28.572Z,101236.94
2023-05-14T16:48:55.218Z,101238.03
2023-05-14T16:51:21.789Z,101236.19
2023-05-14T16:53:48.328Z,101241.34
2023-05-14T16:56:14.882Z,101225.91
2023-05-14T16:58:42.370Z,101225.22
2023-05-14T17:01:10.050Z,101228.28
2023-05-14T17:03:36.898Z,101222.53
2023-05-14T17:06:03.559Z,101241.84
2023-05-14T17:08:30.356Z,101235.84
2023-05-14T17:10:56.951Z,101245.72
2023-05-14T17:13:23.591Z,101238.78
2023-05-14T17:15:50.242Z,101239.94
2023-05-14T17:18:16.922Z,101231.78
2023-05-14T17:20:43.468Z,101237.91
2023-05-14T17:23:10.021Z,101227.75
2023-05-14T17:25:36.546Z,101233.56
2023-05-14T17:28:03.031Z,101232.41
2023-05-14T17:30:29.615Z,101227.59
2023-05-14T17:32:56.180Z,101235.81
2023-05-14T17:35:23.112Z,101238.03
2023-05-14T17:37:49.756Z,101227.50
2023-05-14T17:40:16.304Z,101237.13
2023-05-14T17:42:43.354Z,101239.22
2023-05-14T17:45:10.141Z,101243.00
2023-05-14T17:47:36.701Z,101237.97
2023-05-14T17:50:03.468Z,101235.34
2023-05-14T17:52:30.048Z,101226.72
2023-05-14T17:54:56.676Z,101232.16
2023-05-14T17:57:23.180Z,101235.81
2023-05-14T17:59:49.702Z,101230.41
2023-05-14T18:02:16.300Z,101237.47
2023-05-14T18:04:42.800Z,101244.72
2023-05-14T18:07:09.329Z,101228.28
2023-05-14T18:09:35.877Z,101234.16
2023-05-14T18:12:02.476Z,101243.44
2023-05-14T18:14:29.042Z,101241.88
2023-05-14T18:16:56.471Z,101245.16
2023-05-14T18:19:23.733Z,101241.09
2023-05-14T18:21:50.321Z,101244.06
2023-05-14T18:24:16.945Z,101242.53
2023-05-14T18:26:43.476Z,101241.66
2023-05-14T18:29:10.065Z,101238.88
2023-05-14T18:31:36.663Z,101247.25
2023-05-14T18:34:03.447Z,101239.63
2023-05-14T18:36:30.065Z,101244.44
2023-05-14T18:38:56.661Z,101237.00
2023-05-14T18:41:23.258Z,101250.78
2023-05-14T18:43:49.791Z,101242.97
2023-05-14T18:46:16.345Z,101252.28
2023-05-14T18:48:42.967Z,101251.84
2023-05-14T18:51:09.549Z,101254.81
2023-05-14T18:53:36.125Z,101257.09
2023-05-14T18:56:02.705Z,101253.00
2023-05-14T18:58:29.250Z,101248.00
2023-05-14T19:00:55.844Z,101256.38
2023-05-14T19:03:22.691Z,101259.25
2023-05-14T19:05:49.504Z,101260.56
2023-05-14T19:08:16.117Z,101250.28
2023-05-14T19:10:42.672Z,101262.97
2023-05-14T19:13:09.181Z,101258.78
2023-05-14T19:15:35.926Z,101255.44
2023-05-14T19:18:02.677Z,101259.97
2023-05-14T19:20:29.453Z,101260.19
2023-05-14T19:22:56.041Z,101258.72
2023-05-14T19:25:22.590Z,101261.66
2023-05-14T19:27:49.095Z,101260.31
2023-05-14T19:30:15.672Z,101258.75
2023-05-14T19:32:42.257Z,101258.28
2023-05-14T19:35:09.186Z,101254.88
2023-05-14T19:37:35.729Z,101251.63
2023-05-14T19:40:02.321Z,101254.56
2023-05-14T19:42:28.919Z,101257.50
2023-05-14T19:44:55.456Z,101253.88
2023-05-14T19:47:21.985Z,101253.28
2023-05-14T19:49:48.523Z,101249.09
2023-05-14T19:52:15.076Z,101245.75
2023-05-14T19:54:41.609Z,101251.34
2023-05-14T19:57:09.001Z,101244.34
2023-05-14T19:59:35.496Z,101240.16
2023-05-14T22:04:29.192Z,101183.69
2023-05-14T22:06:55.893Z,101184.84
2023-05-14T22:09:22.426Z,101186.09
2023-05-14T22:11:48.977Z,101180.78
2023-05-14T22:14:15.468Z,101177.50
2023-05-14T22:16:42.028Z,101176.75
2023-05-14T22:19:08.680Z,101172.53
2023-05-14T22:21:35.306Z,101171.06
2023-05-14T22:24:01.898Z,101165.06
2023-05-14T22:26:28.434Z,101171.53
2023-05-14T22:28:55.001Z,101164.41
2023-05-14T22:31:21.590Z,101164.53
2023-05-14T22:33:48.185Z,101164.53
2023-05-14T22:36:14.716Z,101166.56
2023-05-14T22:38:41.310Z,101150.69
2023-05-14T22:41:07.968Z,101158.13
2023-05-14T22:43:34.496Z,101147.56
2023-05-14T22:46:01.126Z,101143.28
2023-05-14T22:48:27.678Z,101142.47
2023-05-14T22:50:54.207Z,101137.09
2023-05-14T22:53:20.755Z,101133.72
2023-05-14T22:55:47.380Z,101137.63
2023-05-14T22:58:13.938Z,101129.00
2023-05-14T23:00:40.444Z,101128.31
2023-05-14T23:03:07.143Z,101123.06
2023-05-14T23:05:33.760Z,101126.75
2023-05-14T23:08:00.280Z,101125.94
2023-05-14T23:10:26.822Z,101125.25
2023-05-14T23:12:53.352Z,101125.41
2023-05-14T23:15:19.883Z,101122.88
2023-05-14T23:17:46.522Z,101123.88
2023-05-14T23:20:13.118Z,101112.31
2023-05-14T23:22:40.167Z,101104.59
2023-05-14T23:25:07.359Z,101106.44
2023-05-14T23:27:34.446Z,101103.16
2023-05-14T23:30:00.997Z,101109.38
2023-05-14T23:32:27.554Z,101101.50
2023-05-14T23:34:54.243Z,101091.03
2023-05-14T23:37:20.868Z,101098.88
2023-05-14T23:39:47.420Z,101089.97
2023-05-14T23:42:13.920Z,101085.72
2023-05-14T23:44:40.458Z,101084.91
2023-05-14T23:47:07.092Z,101079.91
2023-05-14T23:49:33.571Z,101088.03
2023-05-14T23:52:00.113Z,101081.19
2023-05-14T23:54:26.616Z,101082.94
2023-05-14T23:56:53.145Z,101075.19
2023-05-14T23:59:19.671Z,101078.84
